Time;durP1;ratioP1;P1;durP2;ratioP2;P2;SDS_P1;SDS_P2;PMS_P1;PMS_P2;Temp;Humidity;BMP_temperature;BMP_pressure;BME280_temperature;BME280_humidity;BME280_pressure;Samples;Min_cycle;Max_cycle;Signal;HPM_P1;HPM_P2
2023/02/25 00:00:09;;;;;;;5.75;3.40;;;6.30;99.90;;;;;;5013545;28;20034;-52
2023/02/25 00:02:36;;;;;;;4.95;3.40;;;6.10;99.90;;;;;;5013472;28;20030;-52
2023/02/25 00:05:06;;;;;;;5.93;3.58;;;6.00;99.90;;;;;;5012754;28;20030;-47
2023/02/25 00:07:31;;;;;;;4.72;4.00;;;6.00;99.90;;;;;;5013224;28;20022;-51
2023/02/25 00:09:57;;;;;;;9.18;4.30;;;5.90;99.90;;;;;;5013443;28;20044;-48
2023/02/25 00:12:23;;;;;;;7.82;4.22;;;5.90;99.90;;;;;;5013210;28;20444;-50
2023/02/25 00:14:48;;;;;;;6.88;4.28;;;5.70;99.90;;;;;;5013216;28;20069;-51
2023/02/25 00:17:14;;;;;;;4.55;4.15;;;5.70;99.90;;;;;;5012489;28;20508;-49
2023/02/25 00:19:39;;;;;;;7.30;4.15;;;5.60;99.90;;;;;;5013186;28;20030;-47
2023/02/25 00:22:04;;;;;;;5.95;4.38;;;5.50;99.90;;;;;;5013064;28;20034;-50
2023/02/25 00:24:30;;;;;;;9.80;4.38;;;5.50;99.90;;;;;;5012730;28;20033;-51
2023/02/25 00:26:56;;;;;;;7.95;4.25;;;5.50;99.90;;;;;;5012538;28;20069;-50
2023/02/25 00:29:21;;;;;;;8.18;4.47;;;5.50;99.90;;;;;;5012837;28;20084;-50
2023/02/25 00:31:47;;;;;;;5.20;4.32;;;5.50;99.90;;;;;;5012856;28;20394;-49
2023/02/25 00:34:12;;;;;;;10.63;5.05;;;5.40;99.90;;;;;;5013023;28;20401;-52
2023/02/25 00:36:39;;;;;;;7.90;3.80;;;5.40;99.90;;;;;;5005177;28;20046;-47
2023/02/25 00:39:04;;;;;;;6.53;4.45;;;5.30;99.90;;;;;;4995987;28;20032;-53
2023/02/25 00:41:30;;;;;;;8.00;4.75;;;5.30;99.90;;;;;;4993489;28;20022;-48
2023/02/25 00:43:58;;;;;;;11.82;3.25;;;5.30;99.90;;;;;;4993111;28;20474;-50
2023/02/25 00:46:24;;;;;;;12.70;4.15;;;5.30;99.90;;;;;;4992912;28;20029;-46
2023/02/25 00:48:50;;;;;;;9.45;4.30;;;5.30;99.90;;;;;;4993130;28;20029;-49
2023/02/25 00:51:18;;;;;;;9.75;4.50;;;5.40;99.90;;;;;;4992950;28;20034;-49
2023/02/25 00:53:44;;;;;;;13.35;5.82;;;5.40;99.90;;;;;;4992858;28;20033;-49
2023/02/25 00:56:15;;;;;;;6.10;3.58;;;5.30;99.90;;;;;;4991370;28;20490;-50
2023/02/25 00:58:42;;;;;;;10.35;3.90;;;5.30;99.90;;;;;;4992850;28;20025;-48
2023/02/25 01:01:40;;;;;;;9.05;4.00;;;5.20;99.90;;;;;;4993158;28;20405;-48
2023/02/25 01:04:07;;;;;;;6.35;4.70;;;5.20;99.90;;;;;;4967208;28;20034;-48
2023/02/25 01:06:35;;;;;;;9.20;4.70;;;5.10;99.90;;;;;;5012151;28;20053;-48
2023/02/25 01:09:02;;;;;;;9.15;4.72;;;5.10;99.90;;;;;;5012207;28;20025;-48
2023/02/25 01:11:30;;;;;;;7.75;4.63;;;5.00;99.90;;;;;;5012219;28;20079;-51
2023/02/25 01:13:58;;;;;;;8.13;5.07;;;5.00;99.90;;;;;;5003494;28;20014;-52
2023/02/25 01:16:28;;;;;;;11.00;5.35;;;5.00;99.90;;;;;;5002039;28;20165;-50
2023/02/25 01:18:56;;;;;;;12.05;4.68;;;5.00;99.90;;;;;;5000275;28;20224;-49
2023/02/25 01:21:24;;;;;;;7.43;4.68;;;5.00;99.90;;;;;;5004188;28;20022;-46
2023/02/25 01:24:01;;;;;;;8.48;5.85;;;5.00;99.90;;;;;;5002365;28;20073;-53
2023/02/25 01:26:28;;;;;;;11.75;5.70;;;5.10;99.90;;;;;;5001602;28;20094;-49
2023/02/25 01:28:54;;;;;;;8.80;5.32;;;5.00;99.90;;;;;;5001122;28;20093;-49
2023/02/25 01:31:27;;;;;;;9.60;4.80;;;5.00;99.90;;;;;;5000602;28;20026;-49
2023/02/25 01:34:01;;;;;;;8.20;4.53;;;4.90;99.90;;;;;;5001419;28;20018;-47
2023/02/25 01:36:28;;;;;;;10.18;4.82;;;5.10;99.90;;;;;;5001361;28;20026;-49
2023/02/25 01:38:57;;;;;;;12.02;5.43;;;4.80;99.90;;;;;;5000751;28;20030;-49
2023/02/25 01:41:24;;;;;;;10.25;4.90;;;4.90;99.90;;;;;;5000997;28;20037;-55
2023/02/25 01:44:07;;;;;;;9.25;4.82;;;5.10;99.90;;;;;;5011416;28;20076;-50
2023/02/25 01:46:34;;;;;;;9.13;5.30;;;5.00;99.90;;;;;;5011620;28;20026;-47
2023/02/25 01:49:01;;;;;;;12.05;5.18;;;5.00;99.90;;;;;;5010091;28;20024;-49
2023/02/25 01:51:29;;;;;;;11.25;5.53;;;5.10;99.90;;;;;;5009826;28;20084;-49
2023/02/25 01:53:57;;;;;;;10.93;5.18;;;5.00;99.90;;;;;;5010695;28;20029;-50
2023/02/25 01:56:25;;;;;;;12.32;5.82;;;4.90;99.90;;;;;;5011843;28;20026;-46
2023/02/25 01:58:52;;;;;;;12.32;4.90;;;4.80;99.90;;;;;;5011123;28;20026;-44
2023/02/25 02:01:20;;;;;;;12.02;4.75;;;4.90;99.90;;;;;;5012107;28;20042;-51
2023/02/25 02:03:48;;;;;;;8.60;3.85;;;4.70;99.90;;;;;;5010717;28;20033;-47
2023/02/25 02:06:27;;;;;;;10.52;4.15;;;4.60;99.90;;;;;;5011599;28;20030;-49
2023/02/25 02:08:53;;;;;;;9.48;3.45;;;4.60;99.90;;;;;;5011531;28;20026;-49
2023/02/25 02:11:19;;;;;;;6.95;3.08;;;4.90;99.90;;;;;;5013467;28;20112;-48
2023/02/25 02:13:49;;;;;;;5.00;3.03;;;4.70;99.90;;;;;;5012261;28;20097;-48
2023/02/25 02:16:53;;;;;;;8.68;3.85;;;4.80;99.90;;;;;;5010311;28;20469;-48
2023/02/25 02:19:46;;;;;;;8.25;3.90;;;4.70;99.90;;;;;;5011640;28;20022;-50
2023/02/25 02:22:30;;;;;;;11.93;4.53;;;4.70;99.90;;;;;;5010628;28;20068;-49
2023/02/25 02:25:28;;;;;;;13.60;3.80;;;4.80;99.90;;;;;;5011340;28;20037;-47
2023/02/25 02:28:04;;;;;;;12.52;3.85;;;4.90;99.90;;;;;;5011582;28;20049;-51
2023/02/25 02:30:48;;;;;;;13.82;4.97;;;4.90;99.90;;;;;;5011494;28;20026;-51
2023/02/25 02:33:40;;;;;;;9.35;3.78;;;4.90;99.90;;;;;;5011764;28;20490;-50
2023/02/25 02:36:33;;;;;;;9.70;3.42;;;4.90;99.90;;;;;;5011498;28;20068;-50
2023/02/25 02:39:01;;;;;;;11.48;3.40;;;5.00;99.90;;;;;;5011429;28;20037;-50
2023/02/25 02:41:34;;;;;;;11.65;3.20;;;5.00;99.90;;;;;;5013283;28;20100;-52
2023/02/25 02:44:03;;;;;;;8.50;3.58;;;5.10;99.90;;;;;;5014992;28;20478;-46
2023/02/25 02:46:42;;;;;;;6.07;3.00;;;5.00;99.90;;;;;;5015268;28;20478;-46
2023/02/25 02:49:19;;;;;;;12.88;3.25;;;5.10;99.90;;;;;;5015037;28;20049;-49
2023/02/25 02:51:55;;;;;;;12.45;4.38;;;5.10;99.90;;;;;;5015009;28;20022;-47
2023/02/25 02:54:23;;;;;;;8.80;3.75;;;5.10;99.90;;;;;;5014733;28;20014;-48
2023/02/25 02:56:51;;;;;;;14.95;4.03;;;5.10;99.90;;;;;;5014691;28;20022;-47
2023/02/25 02:59:25;;;;;;;9.88;3.53;;;5.10;99.90;;;;;;5014836;28;20481;-49
2023/02/25 03:02:02;;;;;;;12.60;4.18;;;5.00;99.90;;;;;;5014885;28;20034;-48
2023/02/25 03:04:32;;;;;;;13.07;3.50;;;5.10;99.90;;;;;;5014737;28;20038;-53
2023/02/25 03:07:03;;;;;;;15.13;4.40;;;5.20;99.90;;;;;;5013295;28;20486;-51
2023/02/25 03:09:34;;;;;;;12.57;3.95;;;5.10;99.90;;;;;;5014658;28;20061;-51
2023/02/25 03:12:00;;;;;;;15.40;3.88;;;5.10;99.90;;;;;;5014515;28;20018;-46
2023/02/25 03:14:25;;;;;;;14.00;3.65;;;5.10;99.90;;;;;;5013130;28;20025;-46
2023/02/25 03:16:56;;;;;;;12.75;3.80;;;5.10;99.90;;;;;;5013189;28;20018;-49
2023/02/25 03:19:31;;;;;;;9.35;4.05;;;5.10;99.90;;;;;;5014452;28;20108;-48
2023/02/25 03:22:06;;;;;;;10.70;3.78;;;5.10;99.90;;;;;;5014558;28;20026;-49
2023/02/25 03:24:37;;;;;;;11.50;4.00;;;5.10;99.90;;;;;;5014030;28;20079;-50
2023/02/25 03:27:23;;;;;;;17.45;4.45;;;5.10;99.90;;;;;;5012965;28;20037;-52
2023/02/25 03:29:49;;;;;;;13.20;3.63;;;5.10;99.90;;;;;;5014166;28;20033;-52
2023/02/25 03:32:16;;;;;;;10.77;4.60;;;5.10;99.90;;;;;;5014175;28;20026;-49
2023/02/25 03:34:47;;;;;;;16.33;4.55;;;5.10;99.90;;;;;;5014134;28;20046;-48
2023/02/25 03:37:21;;;;;;;9.07;3.95;;;5.00;99.90;;;;;;5014093;28;20022;-46
2023/02/25 03:39:55;;;;;;;13.52;3.10;;;5.00;99.90;;;;;;5014184;28;20132;-49
2023/02/25 03:42:29;;;;;;;13.38;3.55;;;5.00;99.90;;;;;;5012865;28;20029;-47
2023/02/25 03:45:00;;;;;;;8.15;4.32;;;5.20;99.90;;;;;;5014210;28;20021;-53
2023/02/25 03:47:28;;;;;;;11.02;4.40;;;5.10;99.90;;;;;;5012867;28;20029;-52
2023/02/25 03:50:14;;;;;;;9.95;4.07;;;5.00;99.90;;;;;;5013730;28;20018;-53
2023/02/25 03:52:40;;;;;;;16.55;3.83;;;5.20;99.90;;;;;;5012775;28;20022;-48
2023/02/25 03:55:08;;;;;;;9.98;3.47;;;5.10;99.90;;;;;;5013714;28;20512;-52
2023/02/25 03:57:46;;;;;;;17.13;4.38;;;5.10;99.90;;;;;;5013708;28;20026;-49
2023/02/25 04:00:22;;;;;;;17.80;3.95;;;5.10;99.90;;;;;;5013705;28;20513;-49
2023/02/25 04:02:48;;;;;;;14.30;4.63;;;5.20;99.90;;;;;;5013712;28;20034;-47
2023/02/25 04:05:16;;;;;;;16.55;3.90;;;5.20;99.90;;;;;;5013435;28;20033;-50
2023/02/25 04:07:42;;;;;;;15.35;3.80;;;5.20;99.90;;;;;;5013281;28;20029;-47
2023/02/25 04:10:11;;;;;;;14.15;3.55;;;5.10;99.90;;;;;;5013389;28;20037;-48
2023/02/25 04:12:37;;;;;;;15.20;4.13;;;5.10;99.90;;;;;;5013617;28;20033;-47
2023/02/25 04:15:04;;;;;;;14.38;4.18;;;5.20;99.90;;;;;;5013544;28;20064;-47
2023/02/25 04:17:30;;;;;;;12.02;3.83;;;5.10;99.90;;;;;;5013170;28;20068;-47
2023/02/25 04:19:56;;;;;;;9.60;4.13;;;5.10;99.90;;;;;;5013339;28;20046;-48
2023/02/25 04:22:22;;;;;;;10.95;3.15;;;5.10;99.90;;;;;;5013330;28;20034;-48
2023/02/25 04:24:47;;;;;;;15.23;4.10;;;5.10;99.90;;;;;;5012860;28;20033;-50
2023/02/25 04:27:14;;;;;;;14.10;3.85;;;5.10;99.90;;;;;;5013070;28;20452;-49
2023/02/25 04:29:41;;;;;;;14.18;3.20;;;5.20;99.90;;;;;;5013273;28;20109;-47
2023/02/25 04:32:06;;;;;;;19.85;4.22;;;5.20;99.90;;;;;;5013339;28;20042;-47
2023/02/25 04:34:32;;;;;;;11.77;3.95;;;5.30;99.90;;;;;;5012977;28;20084;-47
2023/02/25 04:36:57;;;;;;;9.57;3.95;;;5.30;99.90;;;;;;5013027;28;20026;-48
2023/02/25 04:39:23;;;;;;;14.68;3.80;;;5.30;99.90;;;;;;5012943;28;20073;-48
2023/02/25 04:41:48;;;;;;;16.48;3.53;;;5.30;99.90;;;;;;5012960;28;20029;-49
2023/02/25 04:44:14;;;;;;;9.77;3.30;;;5.30;99.90;;;;;;5012706;28;20068;-48
2023/02/25 04:46:41;;;;;;;15.40;4.30;;;5.30;99.90;;;;;;5012546;28;20033;-50
2023/02/25 04:49:08;;;;;;;11.35;4.05;;;5.30;99.90;;;;;;5012668;28;20038;-49
2023/02/25 04:51:34;;;;;;;12.70;3.72;;;5.30;99.90;;;;;;5012793;28;20020;-53
2023/02/25 04:53:59;;;;;;;13.98;3.40;;;5.30;99.90;;;;;;5012567;28;20022;-51
2023/02/25 04:56:25;;;;;;;13.68;3.25;;;5.30;99.90;;;;;;5012412;28;20030;-48
2023/02/25 04:58:51;;;;;;;13.23;3.20;;;5.30;99.90;;;;;;5012758;28;20022;-47
2023/02/25 05:01:17;;;;;;;31.10;6.90;;;5.30;99.90;;;;;;5012612;28;20050;-49
2023/02/25 05:03:42;;;;;;;14.00;3.28;;;5.30;99.90;;;;;;5012303;28;20081;-50
2023/02/25 05:06:08;;;;;;;17.13;4.22;;;5.30;99.90;;;;;;5012143;28;20025;-48
2023/02/25 05:08:35;;;;;;;15.60;4.78;;;5.30;99.90;;;;;;5012438;28;20040;-48
2023/02/25 05:11:01;;;;;;;14.30;3.75;;;5.20;99.90;;;;;;5012552;28;20026;-47
2023/02/25 05:13:28;;;;;;;12.73;2.88;;;5.30;99.90;;;;;;5012342;28;20439;-51
2023/02/25 05:16:07;;;;;;;12.55;3.22;;;5.30;99.90;;;;;;5012064;28;20022;-49
2023/02/25 05:18:36;;;;;;;13.35;3.35;;;5.30;99.90;;;;;;5012461;28;20482;-49
2023/02/25 05:21:01;;;;;;;12.40;3.17;;;5.30;99.90;;;;;;5012456;28;20026;-49
2023/02/25 05:23:27;;;;;;;15.13;2.95;;;5.40;99.90;;;;;;5011796;28;20050;-52
2023/02/25 05:25:52;;;;;;;10.63;3.47;;;5.40;99.90;;;;;;5027343;23;21485;-38
2023/02/25 05:28:18;;;;;;;14.10;3.35;;;5.30;99.90;;;;;;4971712;28;20114;-41
2023/02/25 05:30:43;;;;;;;15.68;3.92;;;5.40;99.90;;;;;;4972940;28;20495;-41
2023/02/25 05:33:09;;;;;;;11.63;4.07;;;5.40;99.90;;;;;;4972938;28;20062;-47
2023/02/25 05:35:38;;;;;;;13.02;3.58;;;5.40;99.90;;;;;;4972799;28;20035;-42
2023/02/25 05:38:04;;;;;;;12.88;3.25;;;5.40;99.90;;;;;;4973170;28;20204;-40
2023/02/25 05:40:29;;;;;;;13.73;3.15;;;5.40;99.90;;;;;;4972815;28;20070;-40
2023/02/25 05:42:55;;;;;;;11.80;3.25;;;5.40;99.90;;;;;;4973061;28;20113;-38
2023/02/25 05:45:20;;;;;;;19.02;3.33;;;5.40;99.90;;;;;;4972897;28;20035;-40
2023/02/25 05:47:46;;;;;;;7.65;3.10;;;5.30;99.90;;;;;;4973101;28;20166;-42
2023/02/25 05:50:11;;;;;;;13.40;3.45;;;5.30;99.90;;;;;;4971704;28;20026;-41
2023/02/25 05:52:37;;;;;;;8.38;4.05;;;5.40;99.90;;;;;;4972831;28;20089;-41
2023/02/25 05:55:03;;;;;;;9.55;3.08;;;5.20;99.90;;;;;;4972674;28;20452;-42
2023/02/25 05:57:29;;;;;;;15.27;3.60;;;5.20;99.90;;;;;;4973564;28;20023;-42
2023/02/25 05:59:54;;;;;;;10.18;4.15;;;5.30;99.90;;;;;;4974146;28;20052;-40
2023/02/25 06:02:20;;;;;;;13.40;3.17;;;5.20;99.90;;;;;;4975607;28;20035;-42
2023/02/25 06:04:46;;;;;;;18.10;4.20;;;5.20;99.90;;;;;;4973306;28;20105;-42
2023/02/25 06:07:13;;;;;;;11.52;3.30;;;5.20;99.90;;;;;;4972852;28;20027;-43
2023/02/25 06:09:39;;;;;;;18.42;3.50;;;5.20;99.90;;;;;;4972521;28;20037;-42
2023/02/25 06:12:04;;;;;;;16.58;3.42;;;5.30;99.90;;;;;;4972866;28;20031;-42
2023/02/25 06:14:30;;;;;;;11.30;5.05;;;5.20;99.90;;;;;;4972692;28;20553;-41
2023/02/25 06:16:55;;;;;;;16.95;3.80;;;5.30;99.90;;;;;;4975375;28;20598;-41
2023/02/25 06:19:22;;;;;;;7.57;2.47;;;5.30;99.90;;;;;;4976783;28;20030;-43
2023/02/25 06:21:48;;;;;;;10.00;2.55;;;5.20;99.90;;;;;;4976697;28;20398;-41
2023/02/25 06:24:15;;;;;;;11.68;3.42;;;5.20;99.90;;;;;;4976152;28;20027;-43
2023/02/25 06:26:41;;;;;;;11.13;5.00;;;5.20;99.90;;;;;;4976278;28;20114;-41
2023/02/25 06:29:08;;;;;;;13.60;4.00;;;5.10;99.90;;;;;;4976876;28;20019;-44
2023/02/25 06:31:34;;;;;;;11.50;2.88;;;5.10;99.90;;;;;;4976360;28;20033;-44
2023/02/25 06:34:00;;;;;;;13.25;2.83;;;5.10;99.90;;;;;;4976286;28;20436;-42
2023/02/25 06:36:26;;;;;;;14.93;4.05;;;5.10;99.90;;;;;;4976051;28;20441;-43
2023/02/25 06:38:51;;;;;;;21.90;4.05;;;5.10;99.90;;;;;;4976562;28;20074;-42
2023/02/25 06:41:19;;;;;;;15.45;4.35;;;5.10;99.90;;;;;;4976231;28;20078;-42
2023/02/25 06:43:45;;;;;;;8.70;4.00;;;5.20;99.90;;;;;;4975086;28;20031;-40
2023/02/25 06:46:13;;;;;;;12.45;3.30;;;5.20;99.90;;;;;;4976047;28;20454;-43
2023/02/25 06:48:39;;;;;;;15.52;3.35;;;5.10;99.90;;;;;;4976332;28;20105;-42
2023/02/25 06:51:08;;;;;;;18.45;3.63;;;5.10;99.90;;;;;;4976182;28;20463;-38
2023/02/25 06:53:35;;;;;;;14.30;3.10;;;5.10;99.90;;;;;;4977406;28;20054;-43
2023/02/25 06:56:01;;;;;;;10.88;4.18;;;5.10;99.90;;;;;;4974706;28;20410;-43
2023/02/25 06:58:26;;;;;;;12.85;2.78;;;5.20;99.90;;;;;;4975980;28;20026;-44
2023/02/25 07:00:52;;;;;;;14.10;3.55;;;5.30;99.90;;;;;;4974923;28;20089;-42
2023/02/25 07:03:17;;;;;;;12.10;2.72;;;5.20;99.90;;;;;;4975942;28;20035;-42
2023/02/25 07:05:43;;;;;;;14.68;3.90;;;5.20;99.90;;;;;;4976089;28;20031;-42
2023/02/25 07:08:08;;;;;;;15.70;2.70;;;5.30;99.90;;;;;;4975737;28;20050;-42
2023/02/25 07:10:34;;;;;;;12.32;3.88;;;5.30;99.90;;;;;;4975660;28;20027;-43
2023/02/25 07:12:59;;;;;;;13.60;3.88;;;5.30;99.90;;;;;;4975668;28;20023;-41
2023/02/25 07:15:25;;;;;;;14.95;3.35;;;5.40;99.90;;;;;;4975380;28;20027;-43
2023/02/25 07:17:50;;;;;;;15.30;3.85;;;5.40;99.90;;;;;;4975373;28;20030;-42
2023/02/25 07:20:16;;;;;;;10.55;3.72;;;5.30;99.90;;;;;;4975526;28;20030;-39
2023/02/25 07:22:42;;;;;;;7.20;2.35;;;5.30;99.90;;;;;;4975644;28;20031;-43
2023/02/25 07:25:10;;;;;;;16.05;4.60;;;5.20;99.90;;;;;;4975927;28;20129;-42
2023/02/25 07:27:38;;;;;;;15.85;3.67;;;5.30;99.90;;;;;;4975093;28;20161;-43
2023/02/25 07:30:04;;;;;;;17.90;3.28;;;5.30;99.90;;;;;;4975444;28;20034;-42
2023/02/25 07:32:30;;;;;;;16.75;3.15;;;5.20;99.90;;;;;;4975297;28;20102;-44
2023/02/25 07:34:55;;;;;;;17.60;4.05;;;5.20;99.90;;;;;;4975687;28;20118;-44
2023/02/25 07:37:21;;;;;;;11.27;4.03;;;5.30;99.90;;;;;;4974065;28;20018;-41
2023/02/25 07:39:46;;;;;;;12.32;4.43;;;5.30;99.90;;;;;;4975900;28;20026;-42
2023/02/25 07:42:12;;;;;;;13.18;2.88;;;5.40;99.90;;;;;;4976401;28;20023;-42
2023/02/25 07:44:37;;;;;;;17.17;3.55;;;5.40;99.90;;;;;;4975680;28;20078;-42
2023/02/25 07:47:03;;;;;;;9.90;3.42;;;5.40;99.90;;;;;;4975888;28;20030;-42
2023/02/25 07:49:28;;;;;;;11.07;3.38;;;5.50;99.90;;;;;;4976420;28;20513;-43
2023/02/25 07:51:54;;;;;;;10.63;3.10;;;5.40;99.90;;;;;;4975449;28;20475;-42
2023/02/25 07:54:20;;;;;;;18.83;4.47;;;5.50;99.90;;;;;;4975666;28;20249;-40
2023/02/25 07:56:50;;;;;;;12.85;4.43;;;5.40;99.90;;;;;;4975650;28;20033;-41
2023/02/25 07:59:16;;;;;;;16.02;3.47;;;5.40;99.90;;;;;;4975733;28;20030;-41
2023/02/25 08:01:43;;;;;;;12.95;3.47;;;5.40;99.90;;;;;;4973932;28;20027;-40
2023/02/25 08:04:09;;;;;;;10.68;3.50;;;5.40;99.90;;;;;;4974934;28;20434;-41
2023/02/25 08:06:36;;;;;;;15.65;4.00;;;5.40;99.90;;;;;;4975024;28;20050;-41
2023/02/25 08:09:06;;;;;;;7.95;3.90;;;5.40;99.90;;;;;;4973874;28;20023;-42
2023/02/25 08:11:32;;;;;;;16.08;3.88;;;5.40;99.90;;;;;;4974864;28;20037;-42
2023/02/25 08:13:59;;;;;;;10.55;3.55;;;5.50;99.90;;;;;;4974598;28;20457;-38
2023/02/25 08:16:25;;;;;;;9.05;3.38;;;5.50;99.90;;;;;;4974809;28;20034;-42
2023/02/25 08:18:52;;;;;;;11.05;3.08;;;5.50;99.90;;;;;;4973756;28;20031;-43
2023/02/25 08:21:20;;;;;;;14.82;3.63;;;5.50;99.90;;;;;;4975002;28;20038;-40
2023/02/25 08:23:47;;;;;;;24.23;4.55;;;5.50;99.90;;;;;;4974240;28;20475;-42
2023/02/25 08:26:16;;;;;;;12.02;4.13;;;5.50;99.90;;;;;;4974586;28;20038;-41
2023/02/25 08:28:42;;;;;;;11.75;3.42;;;5.50;99.90;;;;;;4974512;28;20364;-42
2023/02/25 08:31:10;;;;;;;17.98;4.72;;;5.60;99.90;;;;;;4974325;28;20031;-45
2023/02/25 08:33:36;;;;;;;11.60;4.80;;;5.70;99.90;;;;;;4974217;28;20052;-41
2023/02/25 08:36:14;;;;;;;12.50;4.35;;;5.90;99.90;;;;;;4973827;28;20033;-41
2023/02/25 08:38:40;;;;;;;9.57;3.75;;;6.00;99.90;;;;;;4973921;28;20026;-44
2023/02/25 08:41:06;;;;;;;12.43;4.47;;;6.10;99.90;;;;;;4973390;28;20026;-42
2023/02/25 08:43:32;;;;;;;8.07;4.40;;;6.20;99.90;;;;;;4974434;28;20546;-45
2023/02/25 08:45:58;;;;;;;10.27;4.57;;;6.20;99.90;;;;;;4973289;28;20035;-48
2023/02/25 08:48:24;;;;;;;7.75;3.97;;;6.30;99.90;;;;;;4974775;28;20078;-43
2023/02/25 08:50:49;;;;;;;13.75;4.78;;;6.40;99.90;;;;;;4974494;28;20114;-42
2023/02/25 08:53:15;;;;;;;11.60;4.50;;;6.50;99.90;;;;;;4973078;28;20053;-43
2023/02/25 08:55:40;;;;;;;15.05;4.85;;;6.50;99.90;;;;;;4973466;28;20399;-42
2023/02/25 08:58:07;;;;;;;11.05;3.75;;;6.50;99.90;;;;;;4972685;28;20039;-42
2023/02/25 09:00:32;;;;;;;11.52;5.18;;;6.60;99.90;;;;;;4973721;28;20027;-41
2023/02/25 09:02:58;;;;;;;11.02;4.65;;;6.40;99.90;;;;;;4973647;28;20025;-40
2023/02/25 09:05:24;;;;;;;15.85;4.50;;;6.40;99.90;;;;;;4973444;28;20450;-41
2023/02/25 09:07:52;;;;;;;13.82;5.18;;;6.40;99.90;;;;;;4973175;28;20068;-41
2023/02/25 09:10:18;;;;;;;6.10;3.40;;;6.40;99.90;;;;;;4973600;28;20049;-44
2023/02/25 09:12:45;;;;;;;13.65;4.65;;;6.50;99.90;;;;;;4972613;28;20743;-43
2023/02/25 09:15:12;;;;;;;9.90;4.07;;;6.80;99.90;;;;;;4972003;28;20487;-42
2023/02/25 09:17:38;;;;;;;13.65;4.15;;;6.60;99.90;;;;;;4972919;28;20022;-43
2023/02/25 09:20:10;;;;;;;15.23;4.32;;;6.70;99.90;;;;;;4972163;28;20038;-46
2023/02/25 09:22:37;;;;;;;8.23;3.90;;;6.80;99.90;;;;;;4973284;28;20482;-41
2023/02/25 09:25:03;;;;;;;11.65;3.95;;;6.90;99.90;;;;;;4973078;28;20035;-43
2023/02/25 09:27:29;;;;;;;8.38;3.90;;;7.00;99.90;;;;;;4973210;28;20042;-42
2023/02/25 09:29:54;;;;;;;11.85;5.03;;;7.20;99.90;;;;;;4973022;28;20042;-41
2023/02/25 09:32:20;;;;;;;13.50;4.45;;;7.30;99.90;;;;;;4973636;28;20031;-44
2023/02/25 09:34:48;;;;;;;7.00;3.42;;;7.40;99.90;;;;;;4973231;28;20023;-43
2023/02/25 09:37:14;;;;;;;12.27;3.70;;;7.70;99.90;;;;;;4973559;28;20019;-42
2023/02/25 09:39:41;;;;;;;9.63;4.25;;;7.90;99.90;;;;;;4973409;28;20442;-41
2023/02/25 09:42:10;;;;;;;12.02;4.60;;;7.80;99.90;;;;;;4973493;28;20029;-41
2023/02/25 09:44:42;;;;;;;13.75;3.17;;;7.70;99.90;;;;;;4973344;28;20026;-42
2023/02/25 09:47:18;;;;;;;9.95;4.10;;;7.70;99.90;;;;;;4973079;28;20138;-45
2023/02/25 09:50:01;;;;;;;11.23;4.43;;;7.70;99.90;;;;;;4972540;28;20106;-38
2023/02/25 09:52:33;;;;;;;12.88;3.35;;;7.60;99.90;;;;;;4973418;28;20031;-41
2023/02/25 09:55:06;;;;;;;12.05;4.00;;;7.60;99.90;;;;;;4973382;28;20031;-43
2023/02/25 09:57:40;;;;;;;9.35;3.75;;;7.70;99.90;;;;;;4972203;28;20483;-42
2023/02/25 10:00:16;;;;;;;9.98;3.85;;;7.60;99.90;;;;;;4973693;28;20027;-41
2023/02/25 10:02:58;;;;;;;13.65;4.22;;;7.70;99.90;;;;;;4973268;28;20410;-42
2023/02/25 10:05:37;;;;;;;9.88;3.88;;;8.50;99.90;;;;;;4972648;28;20089;-40
2023/02/25 10:08:06;;;;;;;8.07;3.60;;;10.00;99.90;;;;;;4972889;28;20031;-44
2023/02/25 10:10:45;;;;;;;16.42;3.47;;;11.20;99.90;;;;;;4971493;28;20026;-42
2023/02/25 10:13:35;;;;;;;7.57;2.97;;;11.80;98.40;;;;;;4972298;28;20030;-41
2023/02/25 10:16:35;;;;;;;8.20;2.33;;;11.50;98.10;;;;;;4963650;28;20161;-42
2023/02/25 10:19:27;;;;;;;9.27;2.70;;;11.00;98.70;;;;;;4963728;28;20495;-41
2023/02/25 10:22:39;;;;;;;9.70;2.40;;;10.80;99.50;;;;;;4953803;29;20019;-43
2023/02/25 10:25:17;;;;;;;5.47;2.85;;;10.20;99.70;;;;;;4939599;28;20571;-41
2023/02/25 10:28:00;;;;;;;16.45;3.63;;;10.30;99.90;;;;;;4972937;28;20038;-43
2023/02/25 10:30:36;;;;;;;5.93;2.47;;;10.60;99.90;;;;;;4971408;28;20027;-44
2023/02/25 10:33:21;;;;;;;15.20;3.35;;;11.00;99.80;;;;;;4972555;28;20097;-44
2023/02/25 10:35:50;;;;;;;9.85;3.55;;;11.40;99.60;;;;;;4972521;28;20018;-45
2023/02/25 10:38:16;;;;;;;17.55;3.45;;;11.40;98.30;;;;;;4972507;28;20097;-44
2023/02/25 10:40:41;;;;;;;5.75;2.30;;;11.50;98.40;;;;;;4972726;28;20553;-41
2023/02/25 10:43:22;;;;;;;13.65;3.13;;;11.30;97.90;;;;;;4971526;28;20027;-44
2023/02/25 10:46:02;;;;;;;7.13;2.78;;;11.30;97.80;;;;;;4972439;28;20034;-41
2023/02/25 10:48:28;;;;;;;9.70;3.30;;;10.90;98.10;;;;;;4972752;28;20122;-41
2023/02/25 10:51:11;;;;;;;13.63;3.25;;;10.20;98.80;;;;;;4972756;28;20502;-41
2023/02/25 10:53:52;;;;;;;12.40;3.08;;;9.70;99.90;;;;;;4972790;28;20027;-42
2023/02/25 10:56:19;;;;;;;9.18;3.47;;;9.50;99.90;;;;;;4972136;28;20031;-41
2023/02/25 10:59:21;;;;;;;6.18;3.08;;;9.40;99.90;;;;;;4970969;28;20095;-42
2023/02/25 11:01:47;;;;;;;8.85;3.33;;;9.20;99.90;;;;;;4967861;28;20043;-44
2023/02/25 11:04:17;;;;;;;12.07;3.05;;;9.40;99.90;;;;;;4975897;28;20483;-42
2023/02/25 11:06:43;;;;;;;13.52;2.63;;;9.60;99.90;;;;;;4976615;28;20038;-40
2023/02/25 11:09:18;;;;;;;7.57;2.50;;;9.80;99.90;;;;;;4976697;28;20537;-43
2023/02/25 11:12:07;;;;;;;9.70;2.53;;;10.30;99.80;;;;;;4975838;28;20034;-42
2023/02/25 11:14:36;;;;;;;11.20;3.15;;;10.50;98.40;;;;;;4975740;28;20495;-39
2023/02/25 11:17:12;;;;;;;6.57;2.08;;;10.70;97.90;;;;;;4975802;28;20446;-43
2023/02/25 11:19:43;;;;;;;7.20;2.55;;;10.70;97.00;;;;;;4975560;28;20022;-45
2023/02/25 11:22:15;;;;;;;5.10;1.83;;;10.90;97.40;;;;;;4975661;28;20035;-44
2023/02/25 11:24:41;;;;;;;10.23;2.67;;;10.90;97.80;;;;;;4975606;28;20102;-43
2023/02/25 11:27:27;;;;;;;10.30;2.10;;;11.10;96.80;;;;;;5021058;23;20048;-49
2023/02/25 11:29:58;;;;;;;7.40;2.25;;;11.10;96.60;;;;;;5034170;28;20033;-51
2023/02/25 11:32:24;;;;;;;4.82;2.25;;;11.10;96.30;;;;;;5033986;28;20404;-50
2023/02/25 11:34:55;;;;;;;9.32;2.40;;;11.10;95.80;;;;;;5033405;28;20026;-46
2023/02/25 11:37:36;;;;;;;8.00;2.13;;;10.90;96.10;;;;;;5044648;28;20025;-53
2023/02/25 11:40:18;;;;;;;4.65;1.83;;;10.60;95.80;;;;;;5057114;28;20029;-53
2023/02/25 11:42:58;;;;;;;10.27;2.03;;;10.50;96.60;;;;;;5045390;28;20739;-48
2023/02/25 11:45:23;;;;;;;6.95;3.65;;;10.40;96.80;;;;;;5047758;28;20408;-49
2023/02/25 11:47:49;;;;;;;8.90;3.60;;;10.20;97.00;;;;;;5050988;28;20039;-47
2023/02/25 11:50:44;;;;;;;9.68;2.67;;;10.10;97.60;;;;;;5052479;28;20033;-44
2023/02/25 11:53:23;;;;;;;9.25;2.60;;;10.10;97.60;;;;;;5051618;28;20031;-49
2023/02/25 11:56:15;;;;;;;10.05;2.05;;;10.30;97.90;;;;;;5054103;28;20447;-50
2023/02/25 11:58:56;;;;;;;15.35;3.22;;;10.10;98.30;;;;;;5053467;28;20017;-48
2023/02/25 12:02:05;;;;;;;12.10;2.53;;;9.90;98.40;;;;;;5053866;28;20475;-47
2023/02/25 12:04:42;;;;;;;4.78;1.95;;;9.80;99.10;;;;;;5053293;28;20021;-47
2023/02/25 12:07:52;;;;;;;6.57;1.90;;;9.70;99.40;;;;;;5038703;28;20033;-52
2023/02/25 12:10:50;;;;;;;10.52;2.30;;;9.40;99.40;;;;;;5032999;28;20041;-49
2023/02/25 12:13:33;;;;;;;8.68;2.35;;;9.40;99.70;;;;;;5032261;28;20026;-52
2023/02/25 12:16:19;;;;;;;12.88;2.42;;;9.40;99.80;;;;;;5033393;28;20025;-50
2023/02/25 12:19:01;;;;;;;4.40;1.80;;;9.40;99.90;;;;;;5033340;28;20026;-49
2023/02/25 12:21:55;;;;;;;5.88;1.90;;;9.20;99.90;;;;;;5033297;28;20052;-52
2023/02/25 12:24:48;;;;;;;7.70;2.38;;;9.10;99.90;;;;;;5032218;28;20029;-48
2023/02/25 12:27:51;;;;;;;9.43;2.50;;;9.10;99.90;;;;;;5030698;28;20126;-49
2023/02/25 12:31:04;;;;;;;6.10;2.20;;;8.80;99.90;;;;;;5032508;28;20017;-50
2023/02/25 12:33:59;;;;;;;7.13;2.55;;;8.70;99.90;;;;;;5043824;28;20511;-47
2023/02/25 12:36:50;;;;;;;5.90;2.40;;;8.40;99.90;;;;;;5052221;28;20032;-48
2023/02/25 12:39:21;;;;;;;1.83;1.58;;;8.20;99.90;;;;;;5052862;28;20099;-47
2023/02/25 12:42:03;;;;;;;2.85;2.28;;;7.40;99.90;;;;;;5052680;28;20092;-48
2023/02/25 12:44:55;;;;;;;3.25;1.38;;;7.40;99.90;;;;;;5037188;28;20025;-47
2023/02/25 12:47:48;;;;;;;4.88;1.30;;;7.40;99.90;;;;;;5036351;28;20075;-46
2023/02/25 12:50:29;;;;;;;4.05;0.98;;;7.30;99.90;;;;;;5032906;28;20036;-46
2023/02/25 12:53:20;;;;;;;10.15;0.88;;;7.30;99.90;;;;;;5031241;28;20481;-49
2023/02/25 12:56:18;;;;;;;0.98;0.60;;;7.30;99.90;;;;;;5032538;28;20029;-47
2023/02/25 12:59:34;;;;;;;0.90;0.70;;;7.20;99.90;;;;;;5032538;28;20595;-48
2023/02/25 13:02:27;;;;;;;0.80;0.80;;;7.30;99.90;;;;;;4989889;28;20030;-49
2023/02/25 13:05:05;;;;;;;4.22;1.20;;;7.40;99.90;;;;;;4990331;28;20026;-47
2023/02/25 13:07:54;;;;;;;6.85;4.75;;;7.40;99.90;;;;;;5020834;28;20048;-47
2023/02/25 13:10:44;;;;;;;8.57;5.25;;;7.50;99.90;;;;;;5032322;28;20040;-48
2023/02/25 13:13:37;;;;;;;1.75;1.20;;;7.60;99.90;;;;;;5030770;28;20037;-49